Terminal Aerodrome Forecast
Issued by NWS Grand Forks, ND

Home | Current Version | Previous Version | Graphics & Text | Print | Product List | Glossary On
Versions: 1 2 3 4 5 6 7 8 9 10 11 12 13 14 15 16 17 18 19 20 21
000
FTUS43 KFGF 240500
TAFFAR
TAF
KFAR 240522Z 2406/2506 30007KT P6SM SCT250
     FM241900 34008KT P6SM BKN030
     FM250200 02008KT 1SM -SN OVC010=

USA.gov is the U.S. government's official web portal to all federal, state and local government web resources and services.